Time;durP1;ratioP1;P1;durP2;ratioP2;P2;SDS_P1;SDS_P2;PMS_P1;PMS_P2;Temp;Humidity;BMP_temperature;BMP_pressure;BME280_temperature;BME280_humidity;BME280_pressure;Samples;Min_cycle;Max_cycle;Signal;HPM_P1;HPM_P2
2021/07/28 00:00:00;;;;;;;;;;;;;;;26.68;45.45;95036.81;2950088;40;19943;-69
2021/07/28 00:02:02;;;;;;;;;;;;;;;26.68;45.63;95034.13;2948825;40;20137;-69
2021/07/28 00:04:03;;;;;;;;;;;;;;;26.68;45.65;95028.75;2946760;40;19967;-70
2021/07/28 00:06:05;;;;;;;;;;;;;;;26.59;45.83;95028.41;2945186;40;19977;-68
2021/07/28 00:08:07;;;;;;;;;;;;;;;26.53;46.18;95040.09;2946702;40;19964;-68
2021/07/28 00:10:08;;;;;;;;;;;;;;;26.40;46.56;95038.63;2946689;40;20028;-68
2021/07/28 00:12:10;;;;;;;;;;;;;;;26.29;47.07;95044.94;2941024;40;19945;-69
2021/07/28 00:14:12;;;;;;;;;;;;;;;26.01;47.73;95049.38;2950984;40;19965;-68
2021/07/28 00:16:14;;;;;;;;;;;;;;;25.86;48.24;95046.47;2941563;40;19937;-68
2021/07/28 00:18:32;;;;;;;;;;;;;;;25.81;48.15;95049.84;2949975;40;19952;-80
2021/07/28 00:24:56;;;;;;;;;;;;;;;26.11;47.78;95043.31;2947784;40;20051;-81
2021/07/28 00:27:01;;;;;;;;;;;;;;;26.14;47.66;95043.66;2952869;40;19982;-78
2021/07/28 00:29:02;;;;;;;;;;;;;;;26.18;47.22;95040.47;2941941;40;19933;-80
2021/07/28 00:31:04;;;;;;;;;;;;;;;26.20;47.00;95044.53;2948930;40;19995;-79
2021/07/28 00:33:06;;;;;;;;;;;;;;;26.17;46.45;95042.34;2948927;40;19953;-80
2021/07/28 00:35:08;;;;;;;;;;;;;;;26.19;46.38;95034.03;2949659;40;20025;-69
2021/07/28 00:37:10;;;;;;;;;;;;;;;26.24;46.06;95042.16;2949286;40;20276;-68
2021/07/28 00:39:12;;;;;;;;;;;;;;;26.21;46.09;95029.25;2950226;40;20023;-69
2021/07/28 00:41:14;;;;;;;;;;;;;;;26.18;45.91;95043.16;2945853;40;20278;-68
2021/07/28 00:43:15;;;;;;;;;;;;;;;26.16;46.13;95027.31;2949124;40;20209;-68
2021/07/28 00:45:17;;;;;;;;;;;;;;;26.14;46.29;95029.44;2941346;40;20366;-80
2021/07/28 00:47:18;;;;;;;;;;;;;;;26.14;46.41;95032.91;2950789;40;20018;-70
2021/07/28 00:49:20;;;;;;;;;;;;;;;26.18;46.28;95035.09;2947423;40;19936;-69
2021/07/28 00:51:21;;;;;;;;;;;;;;;26.19;46.26;95029.47;2942674;40;19952;-68
2021/07/28 00:53:23;;;;;;;;;;;;;;;26.19;46.80;95034.84;2951613;40;19992;-67
2021/07/28 00:55:25;;;;;;;;;;;;;;;26.13;46.47;95031.28;2948819;40;19949;-70
2021/07/28 00:57:26;;;;;;;;;;;;;;;26.10;46.70;95031.78;2938926;40;20025;-68
2021/07/28 00:59:28;;;;;;;;;;;;;;;26.09;46.61;95037.38;2944691;40;19947;-78
2021/07/28 01:01:30;;;;;;;;;;;;;;;26.08;46.51;95030.41;2946462;40;20297;-77
2021/07/28 01:03:32;;;;;;;;;;;;;;;26.06;46.92;95033.34;2951146;40;19949;-79
2021/07/28 01:05:34;;;;;;;;;;;;;;;26.04;47.06;95032.78;2934720;40;19937;-70
2021/07/28 01:07:35;;;;;;;;;;;;;;;26.07;46.74;95034.13;2950766;40;19943;-68
2021/07/28 01:09:37;;;;;;;;;;;;;;;26.01;46.50;95021.72;2948030;40;20022;-69
2021/07/28 01:11:38;;;;;;;;;;;;;;;25.94;46.55;95016.53;2952743;40;20019;-69
2021/07/28 01:13:40;;;;;;;;;;;;;;;25.84;46.85;95017.16;2950266;40;19959;-68
2021/07/28 01:15:44;;;;;;;;;;;;;;;25.82;47.00;95021.16;2950428;40;20004;-69
2021/07/28 01:17:46;;;;;;;;;;;;;;;25.76;46.89;95025.63;2939396;40;19985;-67
2021/07/28 01:19:49;;;;;;;;;;;;;;;25.75;47.18;95018.66;2949547;40;19945;-68
2021/07/28 01:21:50;;;;;;;;;;;;;;;25.77;47.03;95016.53;2945017;40;20043;-68
2021/07/28 01:23:52;;;;;;;;;;;;;;;25.80;46.92;95017.91;2949001;40;20336;-68
2021/07/28 01:25:54;;;;;;;;;;;;;;;25.71;47.31;95015.66;2943976;40;20224;-69
2021/07/28 01:27:55;;;;;;;;;;;;;;;25.53;47.05;95011.38;2943769;40;20012;-67
2021/07/28 01:29:57;;;;;;;;;;;;;;;25.18;47.12;95013.44;2949795;40;19941;-81
2021/07/28 01:31:59;;;;;;;;;;;;;;;25.07;47.37;95010.56;2944358;40;20304;-81
2021/07/28 01:34:01;;;;;;;;;;;;;;;25.09;46.67;95004.97;2949453;40;19944;-79
2021/07/28 01:36:04;;;;;;;;;;;;;;;25.09;46.15;95013.03;2948633;40;19945;-79
2021/07/28 01:38:05;;;;;;;;;;;;;;;24.32;46.97;95009.69;2950481;40;19975;-79
2021/07/28 01:40:07;;;;;;;;;;;;;;;23.78;48.62;95014.47;2940831;40;19940;-80
2021/07/28 01:42:09;;;;;;;;;;;;;;;23.11;50.22;95017.41;2949015;40;20057;-79
2021/07/28 01:44:10;;;;;;;;;;;;;;;23.07;50.67;95013.56;2948831;40;19964;-79
2021/07/28 01:46:14;;;;;;;;;;;;;;;23.35;50.13;95009.44;2950342;40;19933;-79
2021/07/28 01:48:16;;;;;;;;;;;;;;;23.69;49.88;95019.31;2950421;40;19945;-78
2021/07/28 01:50:17;;;;;;;;;;;;;;;24.01;49.04;95015.50;2949703;40;19956;-80
2021/07/28 01:52:19;;;;;;;;;;;;;;;24.28;48.66;95011.22;2949605;40;20043;-79
2021/07/28 01:54:21;;;;;;;;;;;;;;;24.47;48.17;95011.88;2949918;40;19965;-79
2021/07/28 01:56:23;;;;;;;;;;;;;;;24.61;47.61;95015.13;2950685;40;19968;-78
2021/07/28 01:58:25;;;;;;;;;;;;;;;24.72;47.37;95022.28;2955020;40;20049;-78
2021/07/28 02:00:27;;;;;;;;;;;;;;;24.80;46.96;95012.22;2949605;40;19987;-79
2021/07/28 02:02:31;;;;;;;;;;;;;;;24.83;46.83;95012.56;2955389;40;19953;-79
2021/07/28 02:04:33;;;;;;;;;;;;;;;24.83;46.94;95009.91;2950869;40;19953;-80
2021/07/28 02:06:35;;;;;;;;;;;;;;;24.89;47.03;95008.94;2952448;40;19951;-80
2021/07/28 02:08:36;;;;;;;;;;;;;;;24.91;46.98;95004.16;2949702;40;19952;-80
2021/07/28 02:10:42;;;;;;;;;;;;;;;24.90;46.93;94999.84;2953224;40;19977;-79
2021/07/28 02:12:43;;;;;;;;;;;;;;;24.91;46.72;95004.16;2957188;40;20007;-80
2021/07/28 02:14:45;;;;;;;;;;;;;;;24.93;46.83;94998.56;2955307;40;19952;-78
2021/07/28 02:16:47;;;;;;;;;;;;;;;24.93;46.86;95003.91;2950401;40;20267;-80
2021/07/28 02:18:48;;;;;;;;;;;;;;;24.92;46.90;95000.41;2947402;40;19937;-80
2021/07/28 02:20:50;;;;;;;;;;;;;;;24.93;47.09;94998.56;2937478;40;20029;-80
2021/07/28 02:22:51;;;;;;;;;;;;;;;24.93;47.07;95002.03;2951208;40;19943;-79
2021/07/28 02:24:53;;;;;;;;;;;;;;;24.96;46.87;95003.44;2955741;40;20061;-79
2021/07/28 02:26:54;;;;;;;;;;;;;;;24.96;47.11;95007.97;2948902;40;19968;-81
2021/07/28 02:28:56;;;;;;;;;;;;;;;24.94;47.21;95003.66;2949161;40;20377;-78
2021/07/28 02:30:57;;;;;;;;;;;;;;;24.99;47.12;95010.16;2950086;40;19965;-79
2021/07/28 02:32:59;;;;;;;;;;;;;;;25.01;47.20;95010.75;2949981;40;20183;-77
2021/07/28 02:35:01;;;;;;;;;;;;;;;24.94;47.05;95006.34;2954601;40;19999;-80
2021/07/28 02:37:02;;;;;;;;;;;;;;;24.83;47.69;95012.56;2947333;40;19945;-81
2021/07/28 02:39:04;;;;;;;;;;;;;;;24.81;47.86;95014.69;2953914;40;20054;-80
2021/07/28 02:41:05;;;;;;;;;;;;;;;24.85;47.86;95015.03;2950119;40;20042;-80
2021/07/28 02:43:07;;;;;;;;;;;;;;;24.86;47.61;95012.09;2946410;40;20036;-68
2021/07/28 02:45:09;;;;;;;;;;;;;;;24.71;48.03;95006.44;2949523;40;19936;-68
2021/07/28 02:47:10;;;;;;;;;;;;;;;24.68;48.76;95012.31;2948873;40;19995;-68
2021/07/28 02:49:12;;;;;;;;;;;;;;;24.45;49.07;95024.69;2946904;40;20314;-68
2021/07/28 02:51:13;;;;;;;;;;;;;;;24.00;51.26;95028.03;2949358;40;19933;-69
2021/07/28 02:53:15;;;;;;;;;;;;;;;23.73;52.37;95026.91;2949912;40;19941;-67
2021/07/28 02:55:16;;;;;;;;;;;;;;;23.33;54.14;95024.88;2950267;40;20016;-68
2021/07/28 02:57:18;;;;;;;;;;;;;;;23.28;54.19;95028.25;2948707;40;19945;-67
2021/07/28 02:59:19;;;;;;;;;;;;;;;23.46;53.98;95036.16;2948929;40;19937;-68
2021/07/28 03:01:21;;;;;;;;;;;;;;;23.08;55.57;95032.06;2954912;40;19968;-68
2021/07/28 03:03:23;;;;;;;;;;;;;;;23.23;54.85;95033.47;2947711;40;20027;-69
2021/07/28 03:05:24;;;;;;;;;;;;;;;22.88;56.00;95034.97;2949321;40;20035;-68
2021/07/28 03:07:26;;;;;;;;;;;;;;;22.65;58.40;95035.72;2947428;40;20003;-69
2021/07/28 03:09:28;;;;;;;;;;;;;;;22.88;56.67;95031.50;2948902;40;19937;-68
2021/07/28 03:11:30;;;;;;;;;;;;;;;23.12;55.85;95029.72;2950568;40;19953;-69
2021/07/28 03:13:31;;;;;;;;;;;;;;;23.34;55.13;95035.34;2950459;40;19965;-68
2021/07/28 03:15:33;;;;;;;;;;;;;;;23.57;54.82;95028.38;2948654;40;19941;-67
2021/07/28 03:17:35;;;;;;;;;;;;;;;23.75;54.57;95027.44;2951546;40;20000;-69
2021/07/28 03:19:36;;;;;;;;;;;;;;;23.87;54.26;95025.63;2950380;40;20106;-69
2021/07/28 03:21:38;;;;;;;;;;;;;;;24.01;54.07;95023.53;2949748;40;20344;-68
2021/07/28 03:23:39;;;;;;;;;;;;;;;24.03;54.04;95024.91;2955018;40;19941;-69
2021/07/28 03:25:41;;;;;;;;;;;;;;;24.10;53.88;95022.91;2953161;40;20391;-70
2021/07/28 03:27:42;;;;;;;;;;;;;;;24.11;53.88;95027.22;2951555;40;20150;-67
2021/07/28 03:29:44;;;;;;;;;;;;;;;24.18;53.68;95029.78;2952749;40;19945;-68
2021/07/28 03:31:45;;;;;;;;;;;;;;;24.19;53.83;95025.22;2948690;40;19973;-69
2021/07/28 03:33:47;;;;;;;;;;;;;;;24.20;53.85;95029.53;2942596;40;19945;-68
2021/07/28 03:35:48;;;;;;;;;;;;;;;24.23;53.61;95024.50;2945884;40;19933;-67
2021/07/28 03:37:50;;;;;;;;;;;;;;;24.24;53.86;95023.47;2954050;40;19999;-67
2021/07/28 03:40:00;;;;;;;;;;;;;;;24.26;53.38;95020.53;2957303;40;19937;-69
2021/07/28 03:42:02;;;;;;;;;;;;;;;24.27;53.17;95031.03;2942386;40;19977;-69
2021/07/28 03:44:05;;;;;;;;;;;;;;;24.33;52.90;95018.56;2950198;40;19984;-70
2021/07/28 03:46:07;;;;;;;;;;;;;;;24.41;52.62;95020.84;2950780;40;19992;-68
2021/07/28 03:48:09;;;;;;;;;;;;;;;24.45;52.78;95013.16;2950046;40;19964;-69
2021/07/28 03:50:10;;;;;;;;;;;;;;;24.51;52.42;95018.41;2949222;40;19949;-68
2021/07/28 03:52:12;;;;;;;;;;;;;;;24.55;52.16;95017.94;2949821;40;20296;-70
2021/07/28 03:54:14;;;;;;;;;;;;;;;24.60;52.16;95018.03;2948957;40;19969;-69
2021/07/28 03:56:17;;;;;;;;;;;;;;;24.63;52.37;95022.91;2950334;40;20261;-69
2021/07/28 03:58:19;;;;;;;;;;;;;;;24.71;52.16;95017.16;2949611;40;19957;-69
2021/07/28 04:00:21;;;;;;;;;;;;;;;24.80;52.04;95022.94;2949912;40;20171;-69
2021/07/28 04:02:22;;;;;;;;;;;;;;;24.82;51.84;95021.66;2950544;40;20065;-68
2021/07/28 04:04:24;;;;;;;;;;;;;;;24.90;51.77;95029.31;2941422;40;19941;-68
2021/07/28 04:06:25;;;;;;;;;;;;;;;24.95;51.80;95028.59;2949494;40;20245;-68
2021/07/28 04:08:27;;;;;;;;;;;;;;;25.00;51.97;95028.69;2952185;40;19936;-69
2021/07/28 04:10:29;;;;;;;;;;;;;;;24.93;52.13;95028.84;2950540;40;20248;-68
2021/07/28 04:12:30;;;;;;;;;;;;;;;24.91;52.23;95032.81;2951328;40;19947;-78
2021/07/28 04:14:32;;;;;;;;;;;;;;;24.70;53.04;95032.44;2952802;40;20311;-78
2021/07/28 04:16:33;;;;;;;;;;;;;;;24.60;53.22;95034.91;2945401;40;19952;-81
2021/07/28 04:18:35;;;;;;;;;;;;;;;24.63;53.54;95036.28;2954634;40;20002;-79
2021/07/28 04:20:37;;;;;;;;;;;;;;;24.70;53.40;95028.94;2950576;40;19941;-67
2021/07/28 04:22:38;;;;;;;;;;;;;;;24.84;53.01;95037.50;2950259;40;19953;-68
2021/07/28 04:24:40;;;;;;;;;;;;;;;24.93;52.90;95030.72;2940429;40;19948;-67
2021/07/28 04:26:41;;;;;;;;;;;;;;;25.06;52.63;95042.97;2949498;40;19949;-68
2021/07/28 04:28:43;;;;;;;;;;;;;;;25.15;52.42;95038.88;2940942;40;19952;-67
2021/07/28 04:30:45;;;;;;;;;;;;;;;25.24;52.48;95036.63;2948463;40;19956;-68
2021/07/28 04:32:46;;;;;;;;;;;;;;;25.28;52.13;95038.59;2949113;40;20023;-68
2021/07/28 04:34:48;;;;;;;;;;;;;;;25.33;51.95;95041.34;2950905;40;20019;-80
2021/07/28 04:36:50;;;;;;;;;;;;;;;25.42;51.88;95038.25;2948751;40;19953;-79
2021/07/28 04:38:51;;;;;;;;;;;;;;;25.47;51.62;95041.84;2952808;40;19944;-78
2021/07/28 04:40:53;;;;;;;;;;;;;;;25.46;51.58;95039.41;2957117;40;20023;-79
2021/07/28 04:42:54;;;;;;;;;;;;;;;25.49;51.55;95038.91;2948318;40;19937;-79
2021/07/28 04:44:56;;;;;;;;;;;;;;;25.53;51.47;95038.19;2949057;40;20160;-80
2021/07/28 04:46:58;;;;;;;;;;;;;;;25.59;51.14;95033.69;2951769;40;20326;-80
2021/07/28 04:48:59;;;;;;;;;;;;;;;25.63;51.00;95037.53;2952458;40;19941;-79
2021/07/28 04:51:01;;;;;;;;;;;;;;;25.67;50.92;95038.66;2950191;40;20062;-81
2021/07/28 04:53:03;;;;;;;;;;;;;;;25.75;50.75;95035.56;2951089;40;19957;-81
2021/07/28 04:55:04;;;;;;;;;;;;;;;25.85;50.47;95040.25;2951397;40;20054;-80
2021/07/28 04:57:06;;;;;;;;;;;;;;;25.90;50.40;95032.31;2949919;40;19943;-80
2021/07/28 04:59:08;;;;;;;;;;;;;;;25.94;50.42;95032.63;2949723;40;19969;-82
2021/07/28 05:01:09;;;;;;;;;;;;;;;25.98;50.46;95033.75;2950248;40;19941;-68
2021/07/28 05:03:11;;;;;;;;;;;;;;;25.99;50.38;95027.34;2951646;40;20549;-69
2021/07/28 05:05:13;;;;;;;;;;;;;;;26.07;50.10;95024.25;2953637;40;19987;-67
2021/07/28 05:07:19;;;;;;;;;;;;;;;26.08;49.30;95030.41;2954992;40;19973;-72
2021/07/28 05:09:20;;;;;;;;;;;;;;;26.11;48.98;95028.06;2949159;40;20333;-72
2021/07/28 05:11:22;;;;;;;;;;;;;;;26.09;48.67;95027.50;2940379;40;19953;-73
2021/07/28 05:13:23;;;;;;;;;;;;;;;26.07;48.61;95024.25;2940715;40;19959;-72
2021/07/28 05:15:25;;;;;;;;;;;;;;;26.06;48.44;95019.91;2948394;40;20012;-67
2021/07/28 05:17:26;;;;;;;;;;;;;;;26.11;48.35;95027.22;2950587;40;20182;-84
2021/07/28 05:19:28;;;;;;;;;;;;;;;26.17;48.05;95020.06;2950264;40;19945;-81
2021/07/28 05:21:30;;;;;;;;;;;;;;;26.23;48.06;95019.06;2948211;40;19941;-84
2021/07/28 05:23:32;;;;;;;;;;;;;;;26.26;48.29;95013.19;2957550;40;20039;-81
2021/07/28 05:25:33;;;;;;;;;;;;;;;26.34;48.02;95010.06;2955299;40;20333;-80
2021/07/28 05:27:35;;;;;;;;;;;;;;;26.43;48.12;95013.13;2955725;40;19941;-81
2021/07/28 05:29:36;;;;;;;;;;;;;;;26.49;48.09;95020.19;2957936;40;20021;-80
2021/07/28 05:31:38;;;;;;;;;;;;;;;26.49;48.65;95014.81;2959170;40;19987;-80
2021/07/28 05:33:39;;;;;;;;;;;;;;;26.15;49.55;95018.41;2950699;40;20043;-69
2021/07/28 05:35:47;;;;;;;;;;;;;;;26.03;49.94;95024.97;2950347;40;20265;-68
2021/07/28 05:37:55;;;;;;;;;;;;;;;25.99;50.31;95018.47;2949385;40;19941;-70
2021/07/28 05:39:57;;;;;;;;;;;;;;;26.00;50.65;95018.22;2950528;40;20033;-68
2021/07/28 05:41:58;;;;;;;;;;;;;;;26.03;50.59;95019.59;2948053;40;20123;-67
2021/07/28 05:44:01;;;;;;;;;;;;;;;25.90;51.34;95016.22;2949727;40;20019;-68
2021/07/28 05:46:02;;;;;;;;;;;;;;;25.65;51.68;95024.69;2944806;40;19996;-68
2021/07/28 05:48:04;;;;;;;;;;;;;;;25.50;52.31;95022.56;2950209;40;19944;-69
2021/07/28 05:50:06;;;;;;;;;;;;;;;25.49;52.11;95025.47;2948155;40;20331;-69
2021/07/28 05:52:10;;;;;;;;;;;;;;;25.60;52.13;95016.56;2949095;40;19941;-69
2021/07/28 05:54:12;;;;;;;;;;;;;;;25.66;51.86;95020.94;2948637;40;20392;-69
2021/07/28 05:56:13;;;;;;;;;;;;;;;25.82;51.44;95018.47;2948120;40;19957;-68
2021/07/28 05:58:15;;;;;;;;;;;;;;;26.01;50.80;95017.16;2950537;40;19949;-69
2021/07/28 06:00:16;;;;;;;;;;;;;;;26.02;50.89;95016.09;2946280;40;19938;-69
2021/07/28 06:02:18;;;;;;;;;;;;;;;26.08;50.44;95017.00;2949221;40;20325;-71
2021/07/28 06:04:20;;;;;;;;;;;;;;;26.20;50.30;95020.38;2949493;40;20042;-69
2021/07/28 06:06:25;;;;;;;;;;;;;;;26.39;49.68;95018.16;2940460;40;20017;-73
2021/07/28 06:08:27;;;;;;;;;;;;;;;26.52;49.44;95016.97;2950416;40;20032;-68
2021/07/28 06:10:28;;;;;;;;;;;;;;;26.60;49.75;95015.75;2948334;40;20015;-69
2021/07/28 06:12:30;;;;;;;;;;;;;;;26.74;49.05;95014.31;2949619;40;19963;-68
2021/07/28 06:14:31;;;;;;;;;;;;;;;26.55;49.83;95009.25;2949429;40;20022;-69
2021/07/28 06:16:33;;;;;;;;;;;;;;;26.72;49.41;95009.19;2949061;40;20052;-68
2021/07/28 06:18:35;;;;;;;;;;;;;;;26.84;48.88;95009.03;2948090;40;19988;-69
2021/07/28 06:20:37;;;;;;;;;;;;;;;26.95;48.62;95013.47;2945215;40;20024;-68
2021/07/28 06:22:40;;;;;;;;;;;;;;;27.07;48.39;95015.16;2946914;40;20367;-70
2021/07/28 06:24:41;;;;;;;;;;;;;;;27.14;48.42;95013.88;2947953;40;20027;-71
2021/07/28 06:26:43;;;;;;;;;;;;;;;27.14;48.45;95018.44;2948953;40;20325;-69
2021/07/28 06:28:45;;;;;;;;;;;;;;;26.71;49.14;95018.28;2948745;40;19945;-70
2021/07/28 06:30:48;;;;;;;;;;;;;;;26.64;49.29;95023.06;2948659;40;20256;-70
2021/07/28 06:32:50;;;;;;;;;;;;;;;26.66;49.34;95015.56;2944217;40;20286;-68
2021/07/28 06:34:51;;;;;;;;;;;;;;;26.70;49.19;95023.94;2947330;40;19997;-68
2021/07/28 06:36:53;;;;;;;;;;;;;;;26.71;49.29;95020.19;2954096;40;20281;-69
2021/07/28 06:38:54;;;;;;;;;;;;;;;26.77;49.75;95017.28;2949349;40;19949;-70
2021/07/28 06:40:56;;;;;;;;;;;;;;;26.81;49.30;95020.28;2938817;40;20246;-69
2021/07/28 06:42:58;;;;;;;;;;;;;;;26.95;48.60;95018.00;2946169;40;20213;-69
2021/07/28 06:44:59;;;;;;;;;;;;;;;26.80;49.15;95025.91;2935809;40;20043;-69
2021/07/28 06:47:01;;;;;;;;;;;;;;;26.72;49.30;95017.25;2949199;40;19937;-68
2021/07/28 06:49:02;;;;;;;;;;;;;;;26.87;48.83;95019.28;2940991;40;19965;-69
2021/07/28 06:51:04;;;;;;;;;;;;;;;27.03;48.23;95022.13;2939832;40;20063;-69
2021/07/28 06:53:05;;;;;;;;;;;;;;;27.18;47.97;95015.00;2950405;40;19937;-69
2021/07/28 06:55:07;;;;;;;;;;;;;;;27.25;47.61;95017.50;2950209;40;20187;-68
2021/07/28 06:57:09;;;;;;;;;;;;;;;27.20;47.96;95017.44;2947919;40;20173;-72
2021/07/28 06:59:10;;;;;;;;;;;;;;;27.28;47.70;95022.38;2946852;40;20326;-68
2021/07/28 07:01:12;;;;;;;;;;;;;;;27.30;47.42;95022.13;2950199;40;19937;-67
2021/07/28 07:03:13;;;;;;;;;;;;;;;26.89;48.04;95024.41;2950428;40;19933;-69
2021/07/28 07:05:15;;;;;;;;;;;;;;;26.98;48.08;95022.88;2949919;40;19956;-70
2021/07/28 07:07:17;;;;;;;;;;;;;;;27.03;48.11;95014.06;2950690;40;20050;-69
2021/07/28 07:09:18;;;;;;;;;;;;;;;27.29;47.00;95010.53;2953188;40;19944;-70
2021/07/28 07:11:20;;;;;;;;;;;;;;;27.58;46.11;95012.94;2947496;40;19957;-69
2021/07/28 07:13:22;;;;;;;;;;;;;;;27.84;45.31;95007.72;2950249;40;20285;-68
2021/07/28 07:15:23;;;;;;;;;;;;;;;28.10;45.35;95006.81;2950076;40;19980;-69
2021/07/28 07:17:25;;;;;;;;;;;;;;;28.28;44.38;95010.94;2948244;40;19967;-68
2021/07/28 07:19:27;;;;;;;;;;;;;;;28.46;43.59;95001.59;2949845;40;19941;-69
2021/07/28 07:21:28;;;;;;;;;;;;;;;28.64;43.68;94996.81;2949184;40;19937;-67
2021/07/28 07:23:30;;;;;;;;;;;;;;;28.64;42.87;95000.31;2949826;40;19947;-68
2021/07/28 07:25:31;;;;;;;;;;;;;;;28.74;42.70;94999.56;2949347;40;19957;-69
2021/07/28 07:27:33;;;;;;;;;;;;;;;28.39;43.53;95001.00;2949989;40;20375;-69
2021/07/28 07:29:35;;;;;;;;;;;;;;;28.21;44.13;95007.69;2948175;40;20290;-69
2021/07/28 07:31:36;;;;;;;;;;;;;;;28.09;44.33;95002.53;2949983;40;19944;-69
2021/07/28 07:33:41;;;;;;;;;;;;;;;28.34;44.22;94992.91;2945078;40;19937;-69
2021/07/28 07:35:43;;;;;;;;;;;;;;;28.30;43.62;94994.50;2948364;40;20020;-69
2021/07/28 07:37:44;;;;;;;;;;;;;;;28.39;44.12;94999.16;2949493;40;20265;-81
2021/07/28 07:39:46;;;;;;;;;;;;;;;28.62;43.99;94996.28;2955435;40;20063;-80
2021/07/28 07:41:47;;;;;;;;;;;;;;;28.69;43.50;94997.63;2943064;40;20019;-80
2021/07/28 07:43:49;;;;;;;;;;;;;;;28.75;43.54;95003.84;2940032;40;19945;-80
2021/07/28 07:45:55;;;;;;;;;;;;;;;28.58;42.94;94996.78;2950433;40;20026;-79
2021/07/28 07:47:56;;;;;;;;;;;;;;;28.49;43.19;94994.88;2952446;40;19975;-79
2021/07/28 07:49:58;;;;;;;;;;;;;;;28.59;43.09;94998.44;2954375;40;20264;-82
2021/07/28 07:51:59;;;;;;;;;;;;;;;28.74;42.31;94996.84;2941440;40;19942;-80
2021/07/28 07:54:01;;;;;;;;;;;;;;;29.02;41.66;94994.72;2949443;40;20274;-81
2021/07/28 07:56:05;;;;;;;;;;;;;;;28.65;42.41;94993.84;2947897;40;19953;-81
2021/07/28 07:58:07;;;;;;;;;;;;;;;28.64;42.77;95002.22;2950903;40;19937;-83
2021/07/28 08:00:08;;;;;;;;;;;;;;;28.68;42.80;94992.53;2945748;40;20280;-81
2021/07/28 08:02:10;;;;;;;;;;;;;;;28.66;42.31;95000.06;2949162;40;19945;-81
2021/07/28 08:04:12;;;;;;;;;;;;;;;28.85;41.74;94993.09;2952948;40;20263;-79
2021/07/28 08:06:13;;;;;;;;;;;;;;;29.11;41.73;94993.16;2940766;40;19992;-80
2021/07/28 08:08:15;;;;;;;;;;;;;;;29.30;41.34;94983.47;2950889;40;19948;-81
2021/07/28 08:10:17;;;;;;;;;;;;;;;29.20;41.43;94992.34;2951377;40;20371;-68
2021/07/28 08:12:18;;;;;;;;;;;;;;;29.10;41.23;94991.53;2950833;40;19944;-69
2021/07/28 08:14:20;;;;;;;;;;;;;;;29.25;41.33;94986.16;2949238;40;19949;-68
2021/07/28 08:16:24;;;;;;;;;;;;;;;29.29;41.47;94987.22;2950634;40;19937;-69
2021/07/28 08:18:26;;;;;;;;;;;;;;;29.53;40.88;94973.97;2950395;40;19945;-69
2021/07/28 08:20:27;;;;;;;;;;;;;;;29.49;39.93;94978.34;2951173;40;20050;-70
2021/07/28 08:22:29;;;;;;;;;;;;;;;29.70;39.79;94973.72;2950055;40;20073;-72
2021/07/28 08:24:31;;;;;;;;;;;;;;;29.62;39.69;94971.56;2941713;40;20352;-68
2021/07/28 08:26:32;;;;;;;;;;;;;;;29.84;39.83;94965.88;2940630;40;19953;-70
2021/07/28 08:28:34;;;;;;;;;;;;;;;30.07;39.05;94964.44;2950074;40;20528;-69
2021/07/28 08:30:35;;;;;;;;;;;;;;;30.26;38.25;94975.47;2950642;40;19945;-68
2021/07/28 08:32:37;;;;;;;;;;;;;;;30.29;38.17;94972.25;2951139;40;19959;-67
2021/07/28 08:34:38;;;;;;;;;;;;;;;30.47;37.93;94972.72;2949171;40;19945;-81
2021/07/28 08:36:40;;;;;;;;;;;;;;;30.66;37.83;94972.88;2950986;40;19937;-84
2021/07/28 08:38:41;;;;;;;;;;;;;;;30.54;37.61;94973.19;2950095;40;20238;-81
2021/07/28 08:40:43;;;;;;;;;;;;;;;30.31;38.13;94971.94;2952151;40;19967;-83
2021/07/28 08:42:45;;;;;;;;;;;;;;;29.75;38.97;94973.72;2949963;40;20232;-81
2021/07/28 08:44:47;;;;;;;;;;;;;;;29.64;39.10;94974.78;2948184;40;20305;-82
2021/07/28 08:46:53;;;;;;;;;;;;;;;29.86;38.83;94974.53;2949439;40;20301;-82
2021/07/28 08:48:54;;;;;;;;;;;;;;;29.97;38.41;94975.31;2950216;40;20300;-79
2021/07/28 08:50:59;;;;;;;;;;;;;;;30.04;38.21;94975.00;2949175;40;19937;-83
2021/07/28 08:53:02;;;;;;;;;;;;;;;30.17;38.26;94969.00;2949857;40;19970;-80
2021/07/28 08:55:04;;;;;;;;;;;;;;;30.27;38.21;94968.97;2950190;40;19945;-80
2021/07/28 08:57:08;;;;;;;;;;;;;;;30.49;37.78;94965.94;2950860;40;19945;-82
2021/07/28 08:59:43;;;;;;;;;;;;;;;30.62;37.36;94959.91;2949939;40;20044;-83
2021/07/28 09:01:44;;;;;;;;;;;;;;;30.61;36.92;94969.13;2939779;40;20406;-80
2021/07/28 09:03:48;;;;;;;;;;;;;;;30.80;36.70;94973.88;2952343;40;20299;-70
2021/07/28 09:05:50;;;;;;;;;;;;;;;30.72;36.47;94974.47;2952873;40;19944;-69
2021/07/28 09:07:54;;;;;;;;;;;;;;;30.78;35.92;94965.22;2946977;40;19945;-68
2021/07/28 09:09:57;;;;;;;;;;;;;;;30.68;35.60;94968.00;2952258;40;20289;-69
2021/07/28 09:11:59;;;;;;;;;;;;;;;30.59;36.46;94965.88;2954060;40;20283;-70
2021/07/28 09:14:17;;;;;;;;;;;;;;;30.56;36.92;94966.44;2947120;40;20438;-70
2021/07/28 09:16:19;;;;;;;;;;;;;;;30.93;36.51;94964.34;2949346;40;19960;-68
2021/07/28 09:18:47;;;;;;;;;;;;;;;31.28;35.51;94959.75;2950117;40;20281;-67
2021/07/28 09:20:48;;;;;;;;;;;;;;;31.60;35.14;94961.97;2947697;40;19963;-68
2021/07/28 09:22:50;;;;;;;;;;;;;;;31.65;34.75;94961.09;2953856;40;20488;-68
2021/07/28 09:25:09;;;;;;;;;;;;;;;31.80;34.66;94953.63;2950092;40;19977;-68
2021/07/28 09:27:34;;;;;;;;;;;;;;;31.98;34.14;94951.28;2949448;40;20013;-70
2021/07/28 09:29:39;;;;;;;;;;;;;;;32.03;34.12;94951.25;2944854;40;19944;-70
2021/07/28 09:31:45;;;;;;;;;;;;;;;31.71;34.91;94949.94;2940638;40;20248;-68
2021/07/28 09:34:05;;;;;;;;;;;;;;;31.62;34.44;94955.16;2948762;40;19948;-70
2021/07/28 09:36:07;;;;;;;;;;;;;;;31.93;33.84;94937.78;2949945;40;19944;-69
2021/07/28 09:38:08;;;;;;;;;;;;;;;31.83;33.86;94939.47;2953533;40;20058;-69
2021/07/28 09:40:19;;;;;;;;;;;;;;;32.09;33.51;94936.53;2950057;40;20008;-79
2021/07/28 09:42:25;;;;;;;;;;;;;;;31.99;33.47;94933.94;2949844;40;20275;-82
2021/07/28 09:44:28;;;;;;;;;;;;;;;32.14;32.53;94936.47;2945117;40;19942;-82
2021/07/28 09:46:39;;;;;;;;;;;;;;;32.25;31.91;94920.91;2951453;40;19948;-81
2021/07/28 09:48:40;;;;;;;;;;;;;;;32.19;32.65;94930.97;2949131;40;20008;-69
2021/07/28 09:50:42;;;;;;;;;;;;;;;32.42;31.88;94917.69;2950244;40;19945;-69
2021/07/28 09:52:44;;;;;;;;;;;;;;;32.55;32.42;94927.03;2950463;40;19945;-68
2021/07/28 09:54:46;;;;;;;;;;;;;;;32.77;32.71;94926.44;2942362;40;19949;-69
2021/07/28 09:56:48;;;;;;;;;;;;;;;32.91;31.68;94919.19;2953190;40;19975;-68
2021/07/28 09:58:50;;;;;;;;;;;;;;;33.09;31.70;94914.06;2947248;40;19953;-68
2021/07/28 10:00:51;;;;;;;;;;;;;;;33.16;31.91;94918.00;2950914;40;19960;-68
2021/07/28 10:02:54;;;;;;;;;;;;;;;33.20;31.69;94919.00;2941553;40;19942;-68
2021/07/28 10:04:55;;;;;;;;;;;;;;;33.09;31.60;94919.50;2940926;40;19938;-68
2021/07/28 10:06:57;;;;;;;;;;;;;;;33.15;32.20;94918.28;2951469;40;19940;-68
2021/07/28 10:08:58;;;;;;;;;;;;;;;33.28;31.73;94917.53;2952347;40;20015;-69
2021/07/28 10:11:00;;;;;;;;;;;;;;;33.38;31.49;94916.53;2954566;40;19952;-70
2021/07/28 10:13:01;;;;;;;;;;;;;;;33.46;31.08;94913.94;2954476;40;19945;-68
2021/07/28 10:15:04;;;;;;;;;;;;;;;33.38;30.58;94917.34;2947788;40;19941;-69
2021/07/28 10:17:05;;;;;;;;;;;;;;;33.35;30.99;94923.38;2951144;40;20293;-67
2021/07/28 10:19:07;;;;;;;;;;;;;;;33.01;31.44;94912.78;2952029;40;20284;-69
2021/07/28 10:21:19;;;;;;;;;;;;;;;33.11;31.17;94912.66;2942981;40;20330;-69
2021/07/28 10:23:20;;;;;;;;;;;;;;;33.38;30.53;94911.13;2951751;40;20039;-68
2021/07/28 10:25:22;;;;;;;;;;;;;;;33.53;30.12;94904.59;2945772;40;20009;-68
2021/07/28 10:27:23;;;;;;;;;;;;;;;33.68;30.20;94911.72;2947799;40;20023;-69
2021/07/28 10:29:25;;;;;;;;;;;;;;;33.64;29.99;94900.63;2956629;40;20027;-68
2021/07/28 10:31:28;;;;;;;;;;;;;;;33.75;30.01;94906.66;2956806;40;19950;-68
2021/07/28 10:33:30;;;;;;;;;;;;;;;33.92;29.01;94903.34;2948780;40;19937;-68
2021/07/28 10:35:31;;;;;;;;;;;;;;;33.84;29.62;94896.72;2948837;40;19953;-67
2021/07/28 10:37:33;;;;;;;;;;;;;;;33.57;29.66;94892.03;2949934;40;19949;-69
2021/07/28 10:39:35;;;;;;;;;;;;;;;33.54;29.45;94895.38;2950744;40;19941;-69
2021/07/28 10:41:37;;;;;;;;;;;;;;;33.58;29.38;94894.47;2950447;40;20019;-70